createdAt,value
2022-08-19T00:04:01.231Z,0.40
2022-08-19T00:09:05.710Z,0.47
2022-08-19T00:14:11.564Z,0.40
2022-08-19T00:19:17.902Z,0.50
2022-08-19T00:24:21.002Z,0.40
2022-08-19T00:29:24.561Z,0.40
2022-08-19T00:34:30.148Z,0.40
2022-08-19T00:39:33.011Z,0.40
2022-08-19T00:44:37.056Z,0.40
2022-08-19T00:49:44.059Z,0.40
2022-08-19T00:54:52.631Z,0.50
2022-08-19T01:00:02.635Z,0.60
2022-08-19T01:05:17.223Z,0.60
2022-08-19T01:10:22.878Z,0.65
2022-08-19T01:15:29.990Z,0.50
2022-08-19T01:20:35.038Z,0.57
2022-08-19T01:25:46.920Z,0.40
2022-08-19T01:30:53.420Z,0.50
2022-08-19T01:36:10.595Z,0.38
2022-08-19T01:41:14.278Z,0.50
2022-08-19T01:46:24.603Z,0.30
2022-08-19T01:51:28.537Z,0.50
2022-08-19T01:56:31.386Z,0.52
2022-08-19T02:01:36.212Z,0.50
2022-08-19T02:06:40.610Z,0.50
2022-08-19T02:11:43.968Z,0.45
2022-08-19T02:21:49.637Z,0.70
2022-08-19T02:26:53.407Z,0.70
2022-08-19T02:37:03.106Z,0.35
2022-08-19T02:42:07.183Z,0.43
2022-08-19T02:47:10.048Z,0.30
2022-08-19T02:52:12.937Z,0.52
2022-08-19T02:57:15.941Z,0.40
2022-08-19T03:02:18.931Z,0.50
2022-08-19T03:07:21.246Z,0.57
2022-08-19T03:12:23.656Z,0.35
2022-08-19T03:17:26.497Z,0.40
2022-08-19T03:22:33.155Z,0.60
2022-08-19T03:27:36.439Z,0.68
2022-08-19T03:32:45.261Z,0.50
2022-08-19T03:37:47.736Z,0.88
2022-08-19T03:42:50.450Z,0.57
2022-08-19T03:47:52.905Z,0.40
2022-08-19T03:52:56.728Z,0.47
2022-08-19T03:57:59.490Z,0.40
2022-08-19T04:03:02.188Z,0.63
2022-08-19T04:08:05.368Z,0.55
2022-08-19T04:13:08.468Z,0.45
2022-08-19T04:18:11.714Z,0.60
2022-08-19T04:23:15.569Z,0.75
2022-08-19T04:33:24.048Z,0.60
2022-08-19T04:38:29.328Z,0.40
2022-08-19T04:43:32.461Z,0.90
2022-08-19T04:48:35.326Z,0.77
2022-08-19T04:53:39.417Z,0.95
2022-08-19T04:58:43.892Z,0.70
2022-08-19T05:03:46.298Z,0.63
2022-08-19T05:08:49.363Z,0.60
2022-08-19T05:13:51.982Z,0.55
2022-08-19T05:19:13.561Z,0.73
2022-08-19T05:24:16.176Z,0.75
2022-08-19T05:29:21.451Z,0.47
2022-08-19T05:34:27.660Z,0.60
2022-08-19T05:39:33.396Z,0.77
2022-08-19T05:44:40.661Z,0.70
2022-08-19T05:49:43.887Z,0.60
2022-08-19T05:54:51.438Z,0.70
2022-08-19T05:59:58.510Z,0.70
2022-08-19T06:05:01.096Z,0.60
2022-08-19T06:10:05.934Z,1.00
2022-08-19T06:15:11.040Z,0.60
2022-08-19T06:20:15.503Z,0.70
2022-08-19T06:25:18.410Z,0.82
2022-08-19T06:30:21.504Z,0.60
2022-08-19T06:35:24.935Z,0.98
2022-08-19T06:40:28.843Z,0.70
2022-08-19T06:45:35.666Z,0.70
2022-08-19T06:50:41.687Z,0.73
2022-08-19T06:55:45.139Z,0.70
2022-08-19T07:00:47.573Z,0.90
2022-08-19T07:05:50.466Z,0.82
2022-08-19T07:10:52.613Z,0.85
2022-08-19T07:15:55.974Z,0.80
2022-08-19T07:21:27.702Z,0.60
2022-08-19T07:26:34.408Z,0.90
2022-08-19T07:31:37.868Z,1.00
2022-08-19T07:36:43.033Z,0.80
2022-08-19T07:41:46.032Z,0.98
2022-08-19T07:46:53.263Z,0.70
2022-08-19T07:52:02.501Z,0.68
2022-08-19T07:57:05.996Z,1.00
2022-08-19T08:02:09.921Z,0.85
2022-08-19T08:07:31.648Z,0.60
2022-08-19T08:12:44.354Z,0.70
2022-08-19T08:18:04.576Z,0.50
2022-08-19T08:23:39.832Z,0.60
2022-08-19T08:28:42.205Z,0.43
2022-08-19T08:33:50.371Z,0.63
2022-08-19T08:43:58.520Z,0.73
2022-08-19T08:49:35.566Z,0.60
2022-08-19T08:54:48.763Z,0.73
2022-08-19T08:59:58.534Z,0.63
2022-08-19T09:05:02.390Z,0.73
2022-08-19T09:10:44.449Z,0.50
2022-08-19T09:15:53.786Z,0.60
2022-08-19T09:20:57.475Z,1.02
2022-08-19T09:25:59.792Z,0.65
2022-08-19T09:31:01.823Z,0.60
2022-08-19T09:36:08.362Z,0.60
2022-08-19T09:41:18.906Z,0.90
2022-08-19T09:46:24.482Z,0.57
2022-08-19T09:51:30.277Z,0.60
2022-08-19T09:56:34.132Z,0.50
2022-08-19T10:01:36.456Z,0.50
2022-08-19T10:06:46.886Z,0.47
2022-08-19T10:11:54.709Z,0.50
2022-08-19T10:16:59.302Z,0.50
2022-08-19T10:22:04.863Z,0.70
2022-08-19T10:27:14.050Z,0.60
2022-08-19T10:32:18.323Z,0.70
2022-08-19T10:37:23.666Z,0.40
2022-08-19T10:42:32.444Z,0.40
2022-08-19T10:47:35.158Z,0.57
2022-08-19T10:52:38.939Z,0.57
2022-08-19T10:57:59.709Z,0.50
2022-08-19T11:03:04.754Z,0.50
2022-08-19T11:08:22.203Z,0.80
2022-08-19T11:13:28.690Z,0.40
2022-08-19T11:18:31.076Z,1.00
2022-08-19T11:23:33.699Z,0.40
2022-08-19T11:28:36.918Z,0.40
2022-08-19T11:33:38.982Z,0.40
2022-08-19T11:38:41.087Z,0.70
2022-08-19T11:43:43.403Z,0.60
2022-08-19T11:48:45.878Z,0.70
2022-08-19T11:53:48.467Z,0.40
2022-08-19T11:58:50.806Z,0.45
2022-08-19T12:03:55.097Z,0.40
2022-08-19T12:08:58.601Z,0.40
2022-08-19T12:14:00.802Z,0.50
2022-08-19T12:19:05.998Z,0.30
2022-08-19T12:24:08.773Z,0.32
2022-08-19T12:29:10.973Z,0.50
2022-08-19T12:34:13.071Z,0.30
2022-08-19T12:39:15.344Z,0.35
2022-08-19T12:44:18.113Z,0.43
2022-08-19T12:49:52.077Z,0.40
2022-08-19T12:54:44.582Z,0.50
2022-08-19T12:59:46.817Z,0.32
2022-08-19T13:04:49.116Z,0.40
2022-08-19T13:09:53.253Z,0.60
2022-08-19T13:14:56.756Z,0.38
2022-08-19T13:19:58.793Z,0.45
2022-08-19T13:25:01.034Z,0.55
2022-08-19T13:30:23.556Z,0.40
2022-08-19T13:35:25.899Z,0.50
2022-08-19T13:45:36.246Z,0.70
2022-08-19T13:50:45.303Z,0.40
2022-08-19T13:55:47.813Z,0.50
2022-08-19T14:00:50.986Z,0.57
2022-08-19T14:05:53.233Z,0.70
2022-08-19T14:10:56.422Z,0.60
2022-08-19T14:15:59.284Z,0.47
2022-08-19T14:21:01.870Z,0.50
2022-08-19T14:26:13.768Z,0.40
2022-08-19T14:31:20.109Z,0.50
2022-08-19T14:36:22.957Z,0.40
2022-08-19T14:41:28.376Z,0.95
2022-08-19T14:46:30.535Z,0.63
2022-08-19T14:51:32.709Z,0.50
2022-08-19T14:56:34.997Z,0.57
2022-08-19T15:01:37.506Z,0.60
2022-08-19T15:06:39.886Z,0.70
2022-08-19T15:11:42.030Z,0.50
2022-08-19T15:16:44.389Z,0.40
2022-08-19T15:21:46.764Z,0.55
2022-08-19T15:26:49.017Z,0.75
2022-08-19T15:31:57.183Z,0.57
2022-08-19T15:37:01.292Z,0.60
2022-08-19T15:42:04.366Z,0.50
2022-08-19T15:47:09.417Z,0.70
2022-08-19T15:52:11.825Z,0.70
2022-08-19T15:57:23.069Z,0.73
2022-08-19T16:02:46.201Z,0.70
2022-08-19T16:07:48.971Z,0.75
2022-08-19T16:17:56.783Z,0.43
2022-08-19T16:23:00.063Z,0.73
2022-08-19T16:28:07.952Z,0.68
2022-08-19T16:33:10.764Z,0.52
2022-08-19T16:38:12.866Z,0.68
2022-08-19T16:43:15.146Z,0.70
2022-08-19T16:48:17.650Z,0.60
2022-08-19T16:53:23.126Z,0.50
2022-08-19T16:58:28.094Z,0.75
2022-08-19T17:03:35.887Z,0.80
2022-08-19T17:08:39.037Z,0.68
2022-08-19T17:13:41.549Z,0.60
2022-08-19T17:18:45.573Z,0.60
2022-08-19T17:23:47.801Z,0.70
2022-08-19T17:28:52.255Z,0.80
2022-08-19T17:33:55.014Z,1.02
2022-08-19T17:38:59.849Z,0.80
2022-08-19T17:44:03.259Z,0.50
2022-08-19T17:49:05.295Z,0.80
2022-08-19T17:54:11.126Z,0.70
2022-08-19T17:59:14.529Z,0.80
2022-08-19T18:04:17.410Z,0.73
2022-08-19T18:09:20.764Z,1.20
2022-08-19T18:14:33.452Z,0.70
2022-08-19T18:19:42.685Z,0.80
2022-08-19T18:24:46.051Z,0.50
2022-08-19T18:29:48.941Z,0.60
2022-08-19T18:34:51.953Z,1.48
2022-08-19T18:40:12.891Z,0.70
2022-08-19T18:45:35.058Z,0.70
2022-08-19T18:50:42.694Z,0.70
2022-08-19T18:55:46.257Z,0.68
2022-08-19T19:00:48.718Z,0.98
2022-08-19T19:10:56.208Z,0.98
2022-08-19T19:16:01.511Z,0.90
2022-08-19T19:21:04.553Z,0.95
2022-08-19T19:26:11.487Z,0.98
2022-08-19T19:31:17.183Z,0.90
2022-08-19T19:36:19.627Z,1.38
2022-08-19T19:41:26.237Z,1.70
2022-08-19T19:46:29.442Z,1.52
2022-08-19T19:51:37.692Z,1.60
2022-08-19T19:56:45.189Z,1.60
2022-08-19T20:01:47.486Z,1.33
2022-08-19T20:06:49.681Z,1.60
2022-08-19T20:11:56.626Z,1.50
2022-08-19T20:16:59.685Z,1.48
2022-08-19T20:22:01.905Z,1.45
2022-08-19T20:27:04.788Z,1.25
2022-08-19T20:32:07.491Z,1.35
2022-08-19T20:47:14.465Z,1.20
2022-08-19T20:52:17.062Z,1.25
2022-08-19T20:57:19.364Z,1.35
2022-08-19T21:02:21.984Z,2.17
2022-08-19T21:07:24.298Z,1.75
2022-08-19T21:12:42.274Z,1.40
2022-08-19T21:17:44.581Z,1.48
2022-08-19T21:22:46.756Z,1.30
2022-08-19T21:27:49.249Z,1.30
2022-08-19T21:32:52.764Z,1.05
2022-08-19T21:37:55.664Z,0.98
2022-08-19T21:42:58.267Z,1.10
2022-08-19T21:48:01.896Z,0.90
2022-08-19T21:53:04.037Z,1.10
2022-08-19T21:58:06.240Z,1.02
2022-08-19T22:03:08.810Z,1.20
2022-08-19T22:08:11.102Z,0.80
2022-08-19T22:13:13.529Z,1.10
2022-08-19T22:18:19.245Z,1.05
2022-08-19T22:23:21.395Z,1.00
2022-08-19T22:28:27.844Z,0.85
2022-08-19T22:33:30.652Z,1.10
2022-08-19T22:38:32.891Z,0.70
2022-08-19T22:43:37.712Z,0.80
2022-08-19T22:48:40.009Z,1.10
2022-08-19T22:53:45.328Z,0.90
2022-08-19T22:58:50.297Z,0.80
2022-08-19T23:03:52.834Z,0.85
2022-08-19T23:08:55.800Z,0.55
2022-08-19T23:13:58.216Z,0.85
2022-08-19T23:19:00.948Z,0.70
2022-08-19T23:24:03.431Z,0.95
2022-08-19T23:29:24.951Z,0.68
2022-08-19T23:34:27.435Z,0.80
2022-08-19T23:39:30.090Z,1.27
2022-08-19T23:44:32.304Z,0.73
2022-08-19T23:49:36.703Z,0.77
2022-08-19T23:54:43.724Z,1.50
2022-08-19T23:59:46.353Z,0.82
